Time;durP1;ratioP1;P1;durP2;ratioP2;P2;SDS_P1;SDS_P2;PMS_P1;PMS_P2;Temp;Humidity;BMP_temperature;BMP_pressure;BME280_temperature;BME280_humidity;BME280_pressure;Samples;Min_cycle;Max_cycle;Signal;HPM_P1;HPM_P2
2022/10/25 00:01:27;;;;;;;1999.90;999.90;;;;;;;11.31;100.00;94225.97;5093866;28;20193;-63
2022/10/25 00:03:54;;;;;;;1999.90;999.90;;;;;;;11.28;100.00;94224.88;5093550;28;20185;-61
2022/10/25 00:06:20;;;;;;;1999.90;999.90;;;;;;;11.27;100.00;94223.34;5093912;28;20231;-61
2022/10/25 00:08:45;;;;;;;1999.90;999.90;;;;;;;11.27;100.00;94228.81;5093763;28;20209;-60
2022/10/25 00:11:20;;;;;;;1999.90;999.90;;;;;;;11.26;100.00;94231.97;5094255;28;20181;-60
2022/10/25 00:13:48;;;;;;;1999.90;999.90;;;;;;;11.24;100.00;94224.22;5094183;28;20169;-60
2022/10/25 00:16:16;;;;;;;1999.90;999.90;;;;;;;11.21;100.00;94232.50;5094333;28;20226;-60
2022/10/25 00:18:41;;;;;;;1999.90;999.90;;;;;;;11.20;100.00;94222.78;5093535;28;20537;-60
2022/10/25 00:21:06;;;;;;;1999.90;999.90;;;;;;;11.19;100.00;94213.06;5093368;28;20229;-61
2022/10/25 00:23:32;;;;;;;1999.90;999.90;;;;;;;11.17;100.00;94212.72;5094986;28;20216;-70
2022/10/25 00:26:02;;;;;;;1999.90;999.90;;;;;;;11.15;100.00;94215.13;5094134;28;20200;-60
2022/10/25 00:28:27;;;;;;;1999.90;999.90;;;;;;;11.15;100.00;94217.88;5093627;28;20221;-60
2022/10/25 00:31:05;;;;;;;1999.90;999.90;;;;;;;11.10;100.00;94221.13;5094128;28;20180;-61
2022/10/25 00:33:32;;;;;;;1999.90;999.90;;;;;;;11.05;100.00;94205.28;5094038;28;20617;-60
2022/10/25 00:36:10;;;;;;;1999.90;999.90;;;;;;;11.03;100.00;94213.16;5093477;28;20169;-60
2022/10/25 00:38:36;;;;;;;1999.90;999.90;;;;;;;11.00;100.00;94224.94;5093514;28;20197;-60
2022/10/25 00:41:02;;;;;;;1999.90;999.90;;;;;;;10.94;100.00;94221.22;5093260;28;20176;-68
2022/10/25 00:43:32;;;;;;;1999.90;999.90;;;;;;;10.90;100.00;94223.28;5093497;28;20318;-61
2022/10/25 00:45:59;;;;;;;1999.90;999.90;;;;;;;10.85;100.00;94230.03;5094344;28;20192;-61
2022/10/25 00:48:24;;;;;;;1999.90;999.90;;;;;;;10.82;100.00;94228.16;5093620;28;20201;-60
2022/10/25 00:50:52;;;;;;;1999.90;999.90;;;;;;;10.78;100.00;94229.47;5093474;28;20180;-60
2022/10/25 00:53:24;;;;;;;1999.90;999.90;;;;;;;10.74;100.00;94215.16;5093908;28;20177;-61
2022/10/25 00:56:06;;;;;;;1999.90;999.90;;;;;;;10.70;100.00;94219.97;5094038;28;20173;-61
2022/10/25 00:58:36;;;;;;;1999.90;999.90;;;;;;;10.68;100.00;94214.16;5093831;28;20195;-62
2022/10/25 01:01:05;;;;;;;1999.90;999.90;;;;;;;10.65;100.00;94209.53;5093438;28;20184;-61
2022/10/25 01:03:30;;;;;;;1999.90;999.90;;;;;;;10.62;100.00;94204.94;5093781;28;20204;-61
2022/10/25 01:05:58;;;;;;;1999.90;999.90;;;;;;;10.59;100.00;94211.28;5093484;28;20220;-61
2022/10/25 01:08:24;;;;;;;1999.90;999.90;;;;;;;10.56;100.00;94195.78;5093686;28;20224;-61
2022/10/25 01:10:49;;;;;;;1999.90;999.90;;;;;;;10.49;100.00;94191.25;5093521;28;20177;-65
2022/10/25 01:13:17;;;;;;;1999.90;999.90;;;;;;;10.45;100.00;94189.84;5093201;28;20181;-60
2022/10/25 01:16:02;;;;;;;1999.90;999.90;;;;;;;10.41;100.00;94189.19;5093325;28;20601;-60
2022/10/25 01:18:53;;;;;;;1999.90;999.90;;;;;;;10.36;100.00;94181.50;5093487;28;20184;-66
2022/10/25 01:21:21;;;;;;;1999.90;999.90;;;;;;;10.34;100.00;94178.44;5055762;28;20268;-63
2022/10/25 01:24:10;;;;;;;1999.90;999.90;;;;;;;10.26;100.00;94172.41;5092896;28;20259;-62
2022/10/25 01:26:44;;;;;;;1999.90;999.90;;;;;;;10.21;100.00;94147.59;5094887;28;20168;-63
2022/10/25 01:29:34;;;;;;;1999.90;999.90;;;;;;;10.19;100.00;94133.66;5096514;28;20211;-62
2022/10/25 01:32:22;;;;;;;1999.90;999.90;;;;;;;10.17;100.00;94116.94;5097353;28;20172;-63
2022/10/25 01:35:12;;;;;;;1999.90;999.90;;;;;;;10.17;100.00;94095.13;5096907;28;20165;-63
2022/10/25 01:37:47;;;;;;;1999.90;999.90;;;;;;;10.17;100.00;94086.94;5096596;28;20177;-70
2022/10/25 01:40:25;;;;;;;1999.90;999.90;;;;;;;10.12;100.00;94073.84;5096408;28;20213;-69
2022/10/25 01:43:01;;;;;;;1999.90;999.90;;;;;;;10.13;100.00;94064.44;5096856;28;20196;-69
2022/10/25 01:45:33;;;;;;;1999.90;999.90;;;;;;;10.10;100.00;94068.81;5097057;28;20218;-68
2022/10/25 01:48:06;;;;;;;1999.90;999.90;;;;;;;10.05;100.00;94069.28;5096089;28;20308;-69
2022/10/25 01:50:37;;;;;;;1999.90;999.90;;;;;;;10.03;100.00;94067.00;5096998;28;20248;-68
2022/10/25 01:53:03;;;;;;;1999.90;999.90;;;;;;;10.04;100.00;94068.53;5096243;28;20210;-62
2022/10/25 01:55:56;;;;;;;1999.90;999.90;;;;;;;10.06;100.00;94077.06;5096483;28;20182;-62
2022/10/25 01:58:37;;;;;;;1999.90;999.90;;;;;;;10.08;100.00;94071.97;5093826;28;20185;-60
2022/10/25 02:01:05;;;;;;;1999.90;999.90;;;;;;;10.14;100.00;94072.94;5096644;28;20274;-61
2022/10/25 02:03:42;;;;;;;1999.90;999.90;;;;;;;10.20;100.00;94070.44;5096349;28;20189;-60
2022/10/25 02:06:21;;;;;;;1999.90;999.90;;;;;;;10.22;100.00;94059.88;5096649;28;20168;-61
2022/10/25 02:08:47;;;;;;;1999.90;999.90;;;;;;;10.28;100.00;94065.56;5096424;28;20241;-60
2022/10/25 02:11:20;;;;;;;1999.90;999.90;;;;;;;10.31;100.00;94061.97;5095606;28;20193;-63
2022/10/25 02:13:51;;;;;;;1999.90;999.90;;;;;;;10.33;100.00;94073.22;5095691;28;20247;-60
2022/10/25 02:16:36;;;;;;;1999.90;999.90;;;;;;;10.32;100.00;94066.22;5095858;28;20168;-65
2022/10/25 02:19:05;;;;;;;1999.90;999.90;;;;;;;10.33;100.00;94073.22;5096483;28;20196;-66
2022/10/25 02:21:33;;;;;;;1999.90;999.90;;;;;;;10.39;100.00;94066.03;5096127;28;20274;-64
2022/10/25 02:24:07;;;;;;;1999.90;999.90;;;;;;;10.41;100.00;94077.28;5095426;28;20312;-65
2022/10/25 02:26:34;;;;;;;1999.90;999.90;;;;;;;10.46;100.00;94082.19;5095208;28;20193;-64
2022/10/25 02:29:01;;;;;;;1999.90;999.90;;;;;;;10.49;100.00;94075.88;5095338;28;20200;-66
2022/10/25 02:31:28;;;;;;;1999.90;999.90;;;;;;;10.54;100.00;94088.97;5096161;28;20179;-60
2022/10/25 02:33:53;;;;;;;1999.90;999.90;;;;;;;10.59;100.00;94085.72;5095570;28;20225;-62
2022/10/25 02:36:21;;;;;;;1999.90;999.90;;;;;;;10.64;100.00;94098.81;5095369;28;20229;-61
2022/10/25 02:38:48;;;;;;;1999.90;999.90;;;;;;;10.67;100.00;94103.41;5094191;28;20169;-62
2022/10/25 02:41:14;;;;;;;1999.90;999.90;;;;;;;10.75;100.00;94104.72;5095020;28;20237;-62
2022/10/25 02:43:39;;;;;;;1999.90;999.90;;;;;;;10.82;100.00;94110.00;5095019;28;20234;-63
2022/10/25 02:46:06;;;;;;;1999.90;999.90;;;;;;;10.89;100.00;94115.25;5095190;28;20169;-62
2022/10/25 02:48:32;;;;;;;1999.90;999.90;;;;;;;10.96;100.00;94136.88;5095738;28;20202;-59
2022/10/25 02:50:57;;;;;;;1999.90;999.90;;;;;;;11.04;100.00;94149.88;5095350;28;20183;-61
2022/10/25 02:53:22;;;;;;;1999.90;999.90;;;;;;;11.14;100.00;94167.16;5095146;28;20174;-61
2022/10/25 02:55:48;;;;;;;1999.90;999.90;;;;;;;11.22;100.00;94177.41;5095437;28;20181;-60
2022/10/25 02:58:13;;;;;;;1999.90;999.90;;;;;;;11.27;100.00;94182.34;5095134;28;20211;-61
2022/10/25 03:00:38;;;;;;;1999.90;999.90;;;;;;;11.32;100.00;94203.66;5094684;28;20203;-61
2022/10/25 03:03:04;;;;;;;1999.90;999.90;;;;;;;11.36;100.00;94209.78;5095096;28;20173;-60
2022/10/25 03:05:29;;;;;;;1999.90;999.90;;;;;;;11.40;100.00;94226.09;5094899;28;20206;-61
2022/10/25 03:07:54;;;;;;;1999.90;999.90;;;;;;;11.40;100.00;94229.56;5095141;28;20250;-62
2022/10/25 03:10:20;;;;;;;1999.90;999.90;;;;;;;11.43;100.00;94247.84;5094914;28;20204;-68
2022/10/25 03:12:45;;;;;;;1999.90;999.90;;;;;;;11.48;100.00;94265.69;5094416;28;20173;-68
2022/10/25 03:15:11;;;;;;;1999.90;999.90;;;;;;;11.53;100.00;94276.06;5094807;28;20170;-68
2022/10/25 03:17:36;;;;;;;1999.90;999.90;;;;;;;11.59;100.00;94304.41;5094398;28;20182;-69
2022/10/25 03:20:01;;;;;;;1999.90;999.90;;;;;;;11.59;100.00;94345.41;5095013;28;20179;-68
2022/10/25 03:22:27;;;;;;;1999.90;999.90;;;;;;;11.62;100.00;94363.72;5094220;28;20218;-68
2022/10/25 03:24:52;;;;;;;1999.90;999.90;;;;;;;11.63;100.00;94398.06;5094509;28;20177;-62
2022/10/25 03:27:17;;;;;;;1999.90;999.90;;;;;;;11.65;100.00;94414.81;5095785;28;20178;-62
2022/10/25 03:29:43;;;;;;;1999.90;999.90;;;;;;;11.67;100.00;94420.59;5094572;28;20173;-62
2022/10/25 03:32:08;;;;;;;1999.90;999.90;;;;;;;11.69;100.00;94451.03;5094791;28;20187;-62
2022/10/25 03:34:34;;;;;;;1999.90;999.90;;;;;;;11.72;100.00;94455.63;5094227;28;20189;-61
2022/10/25 03:36:59;;;;;;;1999.90;999.90;;;;;;;11.75;100.00;94482.88;5094916;28;20177;-61
2022/10/25 03:39:24;;;;;;;1999.90;999.90;;;;;;;11.78;100.00;94497.66;5094306;28;20182;-62
2022/10/25 03:41:50;;;;;;;1999.90;999.90;;;;;;;11.78;100.00;94514.06;5094248;28;20183;-62
2022/10/25 03:44:15;;;;;;;1999.90;999.90;;;;;;;11.80;100.00;94526.13;5093780;28;20205;-62
2022/10/25 03:46:40;;;;;;;1999.90;999.90;;;;;;;11.82;100.00;94544.84;5093821;28;20234;-63
2022/10/25 03:49:06;;;;;;;1999.90;999.90;;;;;;;11.84;100.00;94556.13;5094213;28;20207;-62
2022/10/25 03:51:31;;;;;;;1999.90;999.90;;;;;;;11.85;100.00;94565.84;5094122;28;20179;-62
2022/10/25 03:53:57;;;;;;;1999.90;999.90;;;;;;;11.90;100.00;94588.00;5094261;28;20178;-62
2022/10/25 03:56:22;;;;;;;1999.90;999.90;;;;;;;11.94;100.00;94604.31;5094527;28;20180;-62
2022/10/25 03:58:47;;;;;;;1999.90;999.90;;;;;;;11.94;100.00;94618.75;5094058;28;20182;-63
2022/10/25 04:01:13;;;;;;;1999.90;999.90;;;;;;;11.98;100.00;94635.84;5094352;28;20188;-60
2022/10/25 04:03:38;;;;;;;1999.90;999.90;;;;;;;12.00;100.00;94657.31;5093890;28;20198;-62
2022/10/25 04:06:04;;;;;;;1999.90;999.90;;;;;;;12.02;100.00;94666.63;5093643;28;20188;-60
2022/10/25 04:08:29;;;;;;;1999.90;999.90;;;;;;;12.02;100.00;94682.28;5093505;28;20213;-62
2022/10/25 04:10:54;;;;;;;1999.90;999.90;;;;;;;12.02;100.00;94698.72;5093744;28;20199;-62
2022/10/25 04:13:20;;;;;;;1999.90;999.90;;;;;;;12.02;100.00;94704.19;5094207;28;20194;-62
2022/10/25 04:15:45;;;;;;;1999.90;999.90;;;;;;;12.03;100.00;94722.13;5094123;28;20174;-61
2022/10/25 04:18:11;;;;;;;1999.90;999.90;;;;;;;12.00;100.00;94729.25;5094297;28;20181;-61
2022/10/25 04:20:36;;;;;;;1999.90;999.90;;;;;;;12.04;100.00;94720.94;5094034;28;20175;-63
2022/10/25 04:23:01;;;;;;;1999.90;999.90;;;;;;;12.05;100.00;94736.16;5093544;28;20245;-63
2022/10/25 04:25:27;;;;;;;1999.90;999.90;;;;;;;12.06;100.00;94734.97;5093542;28;20178;-63
2022/10/25 04:27:53;;;;;;;1999.90;999.90;;;;;;;12.05;100.00;94727.94;5093392;28;20206;-62
2022/10/25 04:30:19;;;;;;;1999.90;999.90;;;;;;;12.04;100.00;94729.13;5093654;28;20169;-62
2022/10/25 04:32:44;;;;;;;1999.90;999.90;;;;;;;12.03;100.00;94733.09;5093645;28;20170;-63
2022/10/25 04:35:11;;;;;;;1999.90;999.90;;;;;;;11.99;100.00;94730.41;5093586;28;20187;-63
2022/10/25 04:37:37;;;;;;;1999.90;999.90;;;;;;;11.89;100.00;94733.41;5093170;28;20178;-64
2022/10/25 04:40:02;;;;;;;1999.90;999.90;;;;;;;11.87;100.00;94725.63;5093588;28;20169;-61
2022/10/25 04:42:28;;;;;;;1999.90;999.90;;;;;;;11.82;100.00;94726.16;5093444;28;20234;-66
2022/10/25 04:44:53;;;;;;;1999.90;999.90;;;;;;;11.78;100.00;94721.97;5093408;28;20190;-66
2022/10/25 04:47:18;;;;;;;1999.90;999.90;;;;;;;11.72;100.00;94718.19;5093283;28;20187;-66
2022/10/25 04:49:44;;;;;;;1999.90;999.90;;;;;;;11.70;100.00;94712.38;5093093;28;20262;-66
2022/10/25 04:52:09;;;;;;;1999.90;999.90;;;;;;;11.65;100.00;94707.44;5093444;28;20179;-66
2022/10/25 04:54:34;;;;;;;1999.90;999.90;;;;;;;11.60;100.00;94702.44;5093269;28;20178;-66
2022/10/25 04:57:00;;;;;;;1999.90;999.90;;;;;;;11.59;100.00;94692.69;5093299;28;20246;-62
2022/10/25 04:59:25;;;;;;;1999.90;999.90;;;;;;;11.58;100.00;94689.19;5093324;28;20187;-62
2022/10/25 05:01:51;;;;;;;1999.90;999.90;;;;;;;11.58;100.00;94686.44;5095958;28;20269;-60
2022/10/25 05:04:16;;;;;;;1999.90;999.90;;;;;;;11.58;100.00;94680.22;5096962;28;20208;-61
2022/10/25 05:06:41;;;;;;;1999.90;999.90;;;;;;;11.57;100.00;94678.66;5097797;28;20169;-61
2022/10/25 05:09:07;;;;;;;1999.90;999.90;;;;;;;11.56;100.00;94671.66;5096720;28;20209;-62
2022/10/25 05:11:32;;;;;;;1999.90;999.90;;;;;;;11.51;100.00;94670.22;5096583;28;20268;-61
2022/10/25 05:13:57;;;;;;;1999.90;999.90;;;;;;;11.49;100.00;94682.78;5097660;28;20206;-61
2022/10/25 05:16:24;;;;;;;1999.90;999.90;;;;;;;11.48;100.00;94675.78;5096554;28;20177;-68
2022/10/25 05:18:53;;;;;;;1999.90;999.90;;;;;;;11.47;100.00;94680.47;5097319;28;20171;-62
2022/10/25 05:21:19;;;;;;;1999.90;999.90;;;;;;;11.50;100.00;94670.63;5096262;28;20169;-62
2022/10/25 05:23:45;;;;;;;1999.90;999.90;;;;;;;11.55;100.00;94653.72;5097233;28;20297;-62
2022/10/25 05:26:13;;;;;;;1999.90;999.90;;;;;;;11.56;100.00;94658.78;5096784;28;20288;-62
2022/10/25 05:28:40;;;;;;;1999.90;999.90;;;;;;;11.58;100.00;94658.34;5097366;28;20201;-63
2022/10/25 05:31:32;;;;;;;1999.90;999.90;;;;;;;11.58;100.00;94653.63;5096627;28;20166;-62
2022/10/25 05:33:59;;;;;;;1999.90;999.90;;;;;;;11.61;100.00;94647.34;5096708;28;20215;-60
2022/10/25 05:36:27;;;;;;;1999.90;999.90;;;;;;;11.67;100.00;94647.59;5096115;28;20171;-61
2022/10/25 05:38:52;;;;;;;1999.90;999.90;;;;;;;11.69;100.00;94645.97;5097605;28;20157;-61
2022/10/25 05:41:18;;;;;;;1999.90;999.90;;;;;;;11.73;100.00;94643.16;5095603;28;20234;-61
2022/10/25 05:43:44;;;;;;;1999.90;999.90;;;;;;;11.76;100.00;94658.72;5095832;28;20171;-62
2022/10/25 05:46:17;;;;;;;1999.90;999.90;;;;;;;11.79;100.00;94663.31;5096629;28;20184;-62
2022/10/25 05:48:42;;;;;;;1999.90;999.90;;;;;;;11.79;100.00;94666.03;5096448;28;20197;-61
2022/10/25 05:51:21;;;;;;;1999.90;999.90;;;;;;;11.85;100.00;94678.03;5096306;28;20184;-62
2022/10/25 05:53:49;;;;;;;1999.90;999.90;;;;;;;11.91;100.00;94690.00;5096283;28;20196;-61
2022/10/25 05:56:15;;;;;;;1999.90;999.90;;;;;;;11.94;100.00;94702.78;5096151;28;20224;-62
2022/10/25 05:58:41;;;;;;;1999.90;999.90;;;;;;;11.95;100.00;94718.03;5095947;28;20303;-62
2022/10/25 06:01:09;;;;;;;1999.90;999.90;;;;;;;11.96;100.00;94744.19;5096637;28;20189;-62
2022/10/25 06:03:35;;;;;;;1999.90;999.90;;;;;;;12.00;100.00;94751.13;5095649;28;20279;-62
2022/10/25 06:06:02;;;;;;;1999.90;999.90;;;;;;;12.05;100.00;94763.50;5096412;28;20217;-61
2022/10/25 06:08:29;;;;;;;1999.90;999.90;;;;;;;12.09;100.00;94772.44;5095973;28;20211;-62
2022/10/25 06:10:54;;;;;;;1999.90;999.90;;;;;;;12.39;100.00;94780.28;5095803;28;20185;-68
2022/10/25 06:13:20;;;;;;;1999.90;999.90;;;;;;;12.64;100.00;94805.06;5095818;28;20188;-60
2022/10/25 06:15:45;;;;;;;1999.90;999.90;;;;;;;12.68;100.00;94849.59;5095682;28;20174;-61
2022/10/25 06:18:11;;;;;;;1999.90;999.90;;;;;;;12.64;100.00;94898.22;5096513;28;20202;-61
2022/10/25 06:20:36;;;;;;;1999.90;999.90;;;;;;;12.62;100.00;94938.94;5095609;28;20228;-62
2022/10/25 06:23:01;;;;;;;1999.90;999.90;;;;;;;12.62;100.00;94966.34;5095375;28;20219;-61
2022/10/25 06:25:27;;;;;;;1999.90;999.90;;;;;;;12.59;100.00;95005.53;5095462;28;20235;-62
2022/10/25 06:27:52;;;;;;;1999.90;999.90;;;;;;;12.59;100.00;95016.50;5096046;28;20205;-62
2022/10/25 06:30:17;;;;;;;1999.90;999.90;;;;;;;12.57;100.00;95038.09;5095426;28;20267;-65
2022/10/25 06:32:43;;;;;;;1999.90;999.90;;;;;;;12.60;100.00;95048.16;5095392;28;20174;-61
2022/10/25 06:35:08;;;;;;;1999.90;999.90;;;;;;;12.61;100.00;95063.44;5095890;28;20175;-60
2022/10/25 06:37:33;;;;;;;1999.90;999.90;;;;;;;12.60;100.00;95072.81;5095454;28;20179;-60
2022/10/25 06:39:59;;;;;;;1999.90;999.90;;;;;;;12.64;100.00;95079.03;5095292;28;20240;-60
2022/10/25 06:42:24;;;;;;;1999.90;999.90;;;;;;;12.65;100.00;95081.31;5095364;28;20182;-60
2022/10/25 06:44:49;;;;;;;1999.90;999.90;;;;;;;12.70;100.00;95077.31;5095411;28;20187;-60
2022/10/25 06:47:15;;;;;;;1999.90;999.90;;;;;;;12.79;100.00;95081.00;5095004;28;20180;-61
2022/10/25 06:49:40;;;;;;;1999.90;999.90;;;;;;;12.86;100.00;95091.06;5094521;28;20223;-62
2022/10/25 06:52:05;;;;;;;1999.90;999.90;;;;;;;12.97;100.00;95099.84;5094846;28;20187;-60
2022/10/25 06:54:31;;;;;;;1999.90;999.90;;;;;;;13.79;100.00;95096.72;5095180;28;20186;-60
2022/10/25 06:56:56;;;;;;;1999.90;999.90;;;;;;;15.63;100.00;95155.88;5094813;28;20305;-60
2022/10/25 06:59:22;;;;;;;1999.90;999.90;;;;;;;17.43;100.00;95338.13;5094780;28;20578;-60
2022/10/25 07:01:48;;;;;;;1999.90;999.90;;;;;;;18.98;100.00;95521.94;5094879;28;20176;-61
2022/10/25 07:04:14;;;;;;;1999.90;999.90;;;;;;;20.15;100.00;95613.06;5094634;28;20203;-60
2022/10/25 07:06:39;;;;;;;1999.90;999.90;;;;;;;20.44;100.00;95646.72;5094411;28;20173;-62
2022/10/25 07:09:07;;;;;;;1999.90;999.90;;;;;;;21.45;100.00;95669.97;5094946;28;20207;-61
2022/10/25 07:11:32;;;;;;;1999.90;999.90;;;;;;;21.31;100.00;95665.06;5095136;28;20185;-61
2022/10/25 07:14:00;;;;;;;1999.90;999.90;;;;;;;21.52;100.00;95675.19;5095152;28;20173;-62
2022/10/25 07:16:27;;;;;;;1999.90;999.90;;;;;;;22.61;100.00;95678.31;5094400;28;20208;-62
2022/10/25 07:18:57;;;;;;;1999.90;999.90;;;;;;;23.11;100.00;95673.75;5094800;28;20176;-62
2022/10/25 07:21:22;;;;;;;1999.90;999.90;;;;;;;23.15;100.00;95680.66;5094849;28;20203;-62
2022/10/25 07:23:49;;;;;;;1999.90;999.90;;;;;;;23.80;100.00;95679.59;5093772;28;20220;-62
2022/10/25 07:26:17;;;;;;;1999.90;999.90;;;;;;;24.39;100.00;95686.63;5094935;28;20176;-62
2022/10/25 07:28:44;;;;;;;1999.90;999.90;;;;;;;22.92;100.00;95703.00;5094904;28;20645;-62
2022/10/25 07:31:21;;;;;;;1999.90;999.90;;;;;;;22.08;100.00;95705.19;5094640;28;20172;-61
2022/10/25 07:33:48;;;;;;;1999.90;999.90;;;;;;;22.91;100.00;95704.25;5094808;28;20179;-62
2022/10/25 07:36:14;;;;;;;1999.90;999.90;;;;;;;23.48;100.00;95702.84;5093985;28;20176;-61
2022/10/25 07:38:39;;;;;;;1999.90;999.90;;;;;;;24.33;100.00;95705.34;5093996;28;20169;-64
2022/10/25 07:41:06;;;;;;;1999.90;999.90;;;;;;;24.25;100.00;95709.75;5093953;28;20192;-61
2022/10/25 07:43:31;;;;;;;1999.90;999.90;;;;;;;23.08;100.00;95708.16;5094134;28;20192;-63
2022/10/25 07:45:56;;;;;;;1999.90;999.90;;;;;;;22.88;100.00;95713.56;5094037;28;20200;-65
2022/10/25 07:48:22;;;;;;;1999.90;999.90;;;;;;;22.60;100.00;95701.06;5093720;28;20220;-65
2022/10/25 07:50:48;;;;;;;1999.90;999.90;;;;;;;21.86;100.00;95708.19;5094172;28;20541;-65
2022/10/25 07:53:13;;;;;;;1999.90;999.90;;;;;;;21.26;100.00;95712.94;5094058;28;20222;-65
2022/10/25 07:55:39;;;;;;;1999.90;999.90;;;;;;;20.70;100.00;95714.59;5093490;28;20199;-65
2022/10/25 07:58:07;;;;;;;1999.90;999.90;;;;;;;19.99;100.00;95711.13;5094561;28;20180;-65
2022/10/25 08:00:34;;;;;;;1999.90;999.90;;;;;;;19.38;100.00;95720.19;5093669;28;20241;-61
2022/10/25 08:03:00;;;;;;;1999.90;999.90;;;;;;;18.98;100.00;95715.75;5093898;28;20168;-67
2022/10/25 08:05:25;;;;;;;1999.90;999.90;;;;;;;18.75;100.00;95718.91;5093586;28;20224;-66
2022/10/25 08:07:51;;;;;;;1999.90;999.90;;;;;;;18.55;100.00;95715.66;5093560;28;20649;-64
2022/10/25 08:10:20;;;;;;;1999.90;999.90;;;;;;;18.54;100.00;95719.66;5093567;28;20222;-64
2022/10/25 08:12:47;;;;;;;1999.90;999.90;;;;;;;18.78;100.00;95718.00;5094232;28;20169;-65
2022/10/25 08:15:14;;;;;;;1999.90;999.90;;;;;;;20.76;100.00;95719.06;5094128;28;20300;-65
2022/10/25 08:17:39;;;;;;;1999.90;999.90;;;;;;;21.99;100.00;95707.97;5094193;28;20180;-64
2022/10/25 08:20:05;;;;;;;1999.90;999.90;;;;;;;23.02;100.00;95707.28;5093614;28;20180;-66
2022/10/25 08:22:30;;;;;;;1999.90;999.90;;;;;;;22.54;100.00;95702.97;5093769;28;20681;-61
2022/10/25 08:24:55;;;;;;;1999.90;999.90;;;;;;;22.50;100.00;95714.25;5093343;28;20257;-61
2022/10/25 08:27:21;;;;;;;1999.90;999.90;;;;;;;22.00;100.00;95710.28;5092337;28;20172;-61
2022/10/25 08:29:46;;;;;;;1999.90;999.90;;;;;;;22.29;100.00;95710.47;5093382;28;20261;-62
2022/10/25 08:32:12;;;;;;;1999.90;999.90;;;;;;;22.96;100.00;95706.38;5092806;28;20257;-61
2022/10/25 08:34:37;;;;;;;1999.90;999.90;;;;;;;23.68;100.00;95705.75;5092643;28;20173;-61
2022/10/25 08:37:03;;;;;;;1999.90;999.90;;;;;;;24.59;100.00;95711.81;5095297;28;20180;-61
2022/10/25 08:39:28;;;;;;;1999.90;999.90;;;;;;;24.39;100.00;95708.97;5096266;28;20189;-65
2022/10/25 08:41:57;;;;;;;1999.90;999.90;;;;;;;25.37;100.00;95705.97;5096538;28;20180;-63
2022/10/25 08:44:40;;;;;;;1999.90;999.90;;;;;;;25.73;100.00;95713.72;5095885;28;20173;-63
2022/10/25 08:47:15;;;;;;;1999.90;999.90;;;;;;;25.91;100.00;95710.59;5096751;28;20172;-64
2022/10/25 08:49:59;;;;;;;1999.90;999.90;;;;;;;25.27;100.00;95710.94;5096148;28;20606;-63
2022/10/25 08:52:44;;;;;;;1999.90;999.90;;;;;;;25.93;97.81;95710.84;5096282;28;20180;-62
2022/10/25 08:55:15;;;;;;;1999.90;999.90;;;;;;;26.65;91.76;95709.41;5096102;28;20173;-63
2022/10/25 08:57:45;;;;;;;1999.90;999.90;;;;;;;26.50;95.47;95705.97;5096465;28;20198;-66
2022/10/25 09:00:19;;;;;;;1999.90;999.90;;;;;;;27.10;87.46;95711.16;5096760;28;20165;-67
2022/10/25 09:02:55;;;;;;;1999.90;999.90;;;;;;;26.55;88.41;95710.84;5096542;28;20149;-67
2022/10/25 09:05:38;;;;;;;1999.90;999.90;;;;;;;26.29;90.92;95707.34;5095629;28;20207;-67
2022/10/25 09:08:09;;;;;;;1999.90;999.90;;;;;;;26.85;84.87;95712.09;5095548;28;20204;-66
2022/10/25 09:11:00;;;;;;;1999.90;999.90;;;;;;;26.63;85.12;95706.34;5095506;28;20206;-67
2022/10/25 09:13:46;;;;;;;1999.90;999.90;;;;;;;26.72;90.00;95708.16;5096248;28;20192;-66
2022/10/25 09:16:20;;;;;;;1999.90;999.90;;;;;;;26.81;85.55;95711.53;5095322;28;20710;-63
2022/10/25 09:18:56;;;;;;;1999.90;999.90;;;;;;;26.72;83.47;95720.16;5095718;28;20179;-62
2022/10/25 09:24:52;;;;;;;1999.90;999.90;;;;;;;26.84;84.72;95710.53;5133010;27;20543;-61
2022/10/25 09:27:29;;;;;;;1999.90;999.90;;;;;;;26.99;80.83;95710.38;5132299;27;20179;-62
2022/10/25 09:30:03;;;;;;;1999.90;999.90;;;;;;;26.98;81.02;95703.22;5132055;28;20167;-62
2022/10/25 09:32:38;;;;;;;1999.90;999.90;;;;;;;26.88;77.71;95699.84;5132364;28;20167;-62
2022/10/25 09:35:11;;;;;;;1999.90;999.90;;;;;;;26.85;83.00;95695.28;5131842;27;20167;-63
2022/10/25 09:37:54;;;;;;;1999.90;999.90;;;;;;;26.58;79.80;95698.63;5132122;28;20178;-66
2022/10/25 09:40:26;;;;;;;1999.90;999.90;;;;;;;26.63;81.18;95695.16;5132195;28;20224;-65
2022/10/25 09:42:53;;;;;;;1999.90;999.90;;;;;;;26.61;80.86;95700.47;5131361;28;20198;-66
2022/10/25 09:45:39;;;;;;;1999.90;999.90;;;;;;;26.49;79.94;95701.66;5132200;27;20216;-66
2022/10/25 09:48:15;;;;;;;1999.90;999.90;;;;;;;26.38;83.10;95695.97;5132130;28;20163;-65
2022/10/25 09:50:50;;;;;;;1999.90;999.90;;;;;;;26.37;78.33;95711.22;5132088;28;20168;-66
2022/10/25 09:53:18;;;;;;;1999.90;999.90;;;;;;;25.93;80.89;95716.44;5132088;27;20159;-62
2022/10/25 09:55:56;;;;;;;1999.90;999.90;;;;;;;25.64;83.66;95711.09;5131356;28;20168;-66
2022/10/25 09:58:29;;;;;;;1999.90;999.90;;;;;;;25.68;82.84;95711.66;5131992;28;20258;-66
2022/10/25 10:00:57;;;;;;;1999.90;999.90;;;;;;;25.26;87.37;95719.81;5131948;27;20172;-65
2022/10/25 10:03:28;;;;;;;1999.90;999.90;;;;;;;25.68;86.79;95724.88;5131670;28;20198;-66
2022/10/25 10:05:59;;;;;;;1999.90;999.90;;;;;;;25.72;81.55;95723.41;5130849;28;20164;-66
2022/10/25 10:08:25;;;;;;;1999.90;999.90;;;;;;;25.83;85.55;95723.50;5131054;28;20168;-66
2022/10/25 10:10:52;;;;;;;1999.90;999.90;;;;;;;25.81;82.07;95709.22;5131604;28;20268;-66
2022/10/25 10:13:40;;;;;;;1999.90;999.90;;;;;;;25.85;79.11;95715.38;5131049;28;20182;-65
2022/10/25 10:16:16;;;;;;;1999.90;999.90;;;;;;;25.90;79.54;95714.66;5130973;28;20171;-65
2022/10/25 10:18:43;;;;;;;1999.90;999.90;;;;;;;26.00;81.64;95716.03;5130893;28;20211;-66
2022/10/25 10:21:08;;;;;;;1999.90;999.90;;;;;;;25.58;82.71;95712.28;5131297;28;20209;-66
2022/10/25 10:23:42;;;;;;;1999.90;999.90;;;;;;;25.56;81.05;95707.19;5130640;28;20220;-65
2022/10/25 10:26:30;;;;;;;1999.90;999.90;;;;;;;25.48;84.24;95703.28;5131356;28;20257;-66
2022/10/25 10:29:07;;;;;;;1999.90;999.90;;;;;;;25.08;84.55;95700.53;5131335;27;20174;-65
2022/10/25 10:31:38;;;;;;;1999.90;999.90;;;;;;;25.33;85.98;95702.63;5130638;28;20171;-65
2022/10/25 10:34:07;;;;;;;1999.90;999.90;;;;;;;25.30;80.30;95698.00;5126881;27;20164;-65
2022/10/25 10:36:34;;;;;;;1999.90;999.90;;;;;;;25.12;81.42;95698.28;5116941;28;20175;-65
2022/10/25 10:39:19;;;;;;;1999.90;999.90;;;;;;;25.48;79.50;95692.09;5117435;28;20172;-65
2022/10/25 10:42:02;;;;;;;1999.90;999.90;;;;;;;24.90;83.24;95698.00;5117952;28;20160;-65
2022/10/25 10:44:28;;;;;;;1999.90;999.90;;;;;;;24.91;84.28;95682.81;5117536;28;20168;-65
2022/10/25 10:46:54;;;;;;;1999.90;999.90;;;;;;;24.79;86.51;95681.09;5116489;28;20172;-65
2022/10/25 10:49:26;;;;;;;1999.90;999.90;;;;;;;24.40;87.17;95683.34;5116316;28;20258;-66
2022/10/25 10:51:51;;;;;;;1999.90;999.90;;;;;;;24.48;86.80;95690.06;5116640;28;20171;-66
2022/10/25 10:54:17;;;;;;;1999.90;999.90;;;;;;;24.00;89.73;95685.28;5116572;28;20188;-66
2022/10/25 10:56:42;;;;;;;1999.90;999.90;;;;;;;23.65;94.42;95690.75;5116721;28;20179;-66
2022/10/25 10:59:26;;;;;;;1999.90;999.90;;;;;;;22.56;99.68;95683.75;5116578;28;20189;-66